createdAt,value
2018-03-16T00:00:36.675Z,83.67
2018-03-16T00:02:39.155Z,89.97
2018-03-16T00:04:41.584Z,88.37
2018-03-16T00:06:44.167Z,98.40
2018-03-16T00:08:46.660Z,87.87
2018-03-16T00:10:49.254Z,92.37
2018-03-16T00:12:51.723Z,92.77
2018-03-16T00:14:54.314Z,92.70
2018-03-16T00:16:56.834Z,89.40
2018-03-16T00:18:59.328Z,89.80
2018-03-16T00:21:01.927Z,87.50
2018-03-16T00:23:04.343Z,89.63
2018-03-16T00:25:06.830Z,91.17
2018-03-16T00:27:09.300Z,90.40
2018-03-16T00:29:11.798Z,86.40
2018-03-16T00:31:14.266Z,85.47
2018-03-16T00:33:16.716Z,86.93
2018-03-16T00:35:19.161Z,95.43
2018-03-16T00:37:21.630Z,87.53
2018-03-16T00:39:24.122Z,88.77
2018-03-16T00:41:26.646Z,87.53
2018-03-16T00:43:29.112Z,89.80
2018-03-16T00:45:31.623Z,87.40
2018-03-16T00:47:34.060Z,87.30
2018-03-16T00:49:36.562Z,87.83
2018-03-16T00:51:39.032Z,97.87
2018-03-16T00:53:41.502Z,98.07
2018-03-16T00:55:43.950Z,98.70
2018-03-16T00:57:46.400Z,90.03
2018-03-16T00:59:48.876Z,100.83
2018-03-16T01:01:51.373Z,92.80
2018-03-16T01:03:53.797Z,93.90
2018-03-16T01:05:56.270Z,92.20
2018-03-16T01:07:58.737Z,85.20
2018-03-16T01:10:01.178Z,100.10
2018-03-16T01:12:03.716Z,88.43
2018-03-16T01:14:06.228Z,91.13
2018-03-16T01:16:08.835Z,92.73
2018-03-16T01:18:11.317Z,95.17
2018-03-16T01:20:13.811Z,97.23
2018-03-16T01:22:16.236Z,94.47
2018-03-16T01:24:18.725Z,94.53
2018-03-16T01:26:21.192Z,94.03
2018-03-16T01:28:23.661Z,93.87
2018-03-16T01:30:26.175Z,96.53
2018-03-16T01:32:28.671Z,88.63
2018-03-16T01:34:31.116Z,90.90
2018-03-16T01:36:33.576Z,95.07
2018-03-16T01:38:36.022Z,103.93
2018-03-16T01:40:38.463Z,95.83
2018-03-16T01:42:41.017Z,82.97
2018-03-16T01:44:43.457Z,98.10
2018-03-16T01:46:45.902Z,101.80
2018-03-16T01:48:48.525Z,99.27
2018-03-16T01:50:50.973Z,102.07
2018-03-16T01:53:05.284Z,103.60
2018-03-16T01:55:07.771Z,104.53
2018-03-16T01:57:10.261Z,93.33
2018-03-16T01:59:12.750Z,103.53
2018-03-16T02:01:15.236Z,105.83
2018-03-16T02:03:17.697Z,103.07
2018-03-16T02:05:20.192Z,102.50
2018-03-16T02:07:22.623Z,98.20
2018-03-16T02:09:25.212Z,102.97
2018-03-16T02:11:27.661Z,97.57
2018-03-16T02:13:30.198Z,92.30
2018-03-16T02:15:32.737Z,101.67
2018-03-16T02:17:35.197Z,98.40
2018-03-16T02:19:37.631Z,104.73
2018-03-16T02:21:40.096Z,107.77
2018-03-16T02:23:42.710Z,103.70
2018-03-16T02:25:45.218Z,114.00
2018-03-16T02:27:47.678Z,100.10
2018-03-16T02:29:50.238Z,98.50
2018-03-16T02:31:52.678Z,112.10
2018-03-16T02:33:55.204Z,100.53
2018-03-16T02:35:57.686Z,106.40
2018-03-16T02:38:00.152Z,114.03
2018-03-16T02:40:03.148Z,99.70
2018-03-16T02:42:05.609Z,95.00
2018-03-16T02:44:08.107Z,97.57
2018-03-16T02:46:10.602Z,90.50
2018-03-16T02:48:13.041Z,101.67
2018-03-16T02:50:15.562Z,98.00
2018-03-16T02:52:18.077Z,99.97
2018-03-16T02:54:20.520Z,104.33
2018-03-16T02:56:23.072Z,98.40
2018-03-16T02:58:25.589Z,103.27
2018-03-16T03:00:28.046Z,100.93
2018-03-16T03:02:30.502Z,108.40
2018-03-16T03:04:33.039Z,97.87
2018-03-16T03:06:35.629Z,103.20
2018-03-16T03:08:38.094Z,98.33
2018-03-16T03:10:40.529Z,95.10
2018-03-16T03:12:42.996Z,109.73
2018-03-16T03:14:46.118Z,97.47
2018-03-16T03:16:48.578Z,99.30
2018-03-16T03:18:51.122Z,112.80
2018-03-16T03:20:53.602Z,99.27
2018-03-16T03:22:56.074Z,113.20
2018-03-16T03:24:58.532Z,110.90
2018-03-16T03:27:00.978Z,108.23
2018-03-16T03:29:03.478Z,116.20
2018-03-16T03:31:06.714Z,103.00
2018-03-16T03:33:09.269Z,115.00
2018-03-16T03:35:11.753Z,104.50
2018-03-16T03:37:14.208Z,106.90
2018-03-16T03:39:16.649Z,120.33
2018-03-16T03:41:19.126Z,116.10
2018-03-16T03:43:21.593Z,116.67
2018-03-16T03:45:24.124Z,112.30
2018-03-16T03:47:26.572Z,123.93
2018-03-16T03:49:29.117Z,125.40
2018-03-16T03:51:31.574Z,106.77
2018-03-16T03:53:34.078Z,118.10
2018-03-16T03:55:36.590Z,115.07
2018-03-16T03:57:39.125Z,113.10
2018-03-16T03:59:42.143Z,115.33
2018-03-16T04:01:45.370Z,122.37
2018-03-16T04:03:47.824Z,115.60
2018-03-16T04:05:50.284Z,119.13
2018-03-16T04:07:52.777Z,114.97
2018-03-16T04:09:55.218Z,116.50
2018-03-16T04:11:57.675Z,119.60
2018-03-16T04:14:00.184Z,115.87
2018-03-16T04:16:02.603Z,128.13
2018-03-16T04:18:05.144Z,120.10
2018-03-16T04:20:07.632Z,113.07
2018-03-16T04:22:10.078Z,138.67
2018-03-16T04:24:12.722Z,114.23
2018-03-16T04:26:15.159Z,118.60
2018-03-16T04:28:17.634Z,114.30
2018-03-16T04:30:20.089Z,112.17
2018-03-16T04:32:22.569Z,122.47
2018-03-16T04:34:25.030Z,112.57
2018-03-16T04:36:27.584Z,116.23
2018-03-16T04:38:30.029Z,120.07
2018-03-16T04:40:32.492Z,126.47
2018-03-16T04:42:34.960Z,105.30
2018-03-16T04:44:37.409Z,121.07
2018-03-16T04:46:39.889Z,118.40
2018-03-16T04:48:42.350Z,111.60
2018-03-16T04:50:44.829Z,123.30
2018-03-16T04:52:47.403Z,122.63
2018-03-16T04:54:49.843Z,113.70
2018-03-16T04:56:52.317Z,118.80
2018-03-16T04:58:54.905Z,118.67
2018-03-16T05:00:57.448Z,105.17
2018-03-16T05:02:59.932Z,118.47
2018-03-16T05:05:02.386Z,122.20
2018-03-16T05:07:04.876Z,113.17
2018-03-16T05:09:07.640Z,120.10
2018-03-16T05:11:10.119Z,124.27
2018-03-16T05:13:12.593Z,120.87
2018-03-16T05:15:15.130Z,101.50
2018-03-16T05:17:17.593Z,120.07
2018-03-16T05:19:20.144Z,120.10
2018-03-16T05:21:22.589Z,106.37
2018-03-16T05:23:25.024Z,104.53
2018-03-16T05:25:27.522Z,113.53
2018-03-16T05:27:29.984Z,104.50
2018-03-16T05:29:32.465Z,106.93
2018-03-16T05:31:34.998Z,105.50
2018-03-16T05:33:37.485Z,117.50
2018-03-16T05:35:39.956Z,121.30
2018-03-16T05:37:42.479Z,118.17
2018-03-16T05:39:44.909Z,106.43
2018-03-16T05:41:49.426Z,124.37
2018-03-16T05:43:51.869Z,107.03
2018-03-16T05:45:54.364Z,114.20
2018-03-16T05:47:56.873Z,108.57
2018-03-16T05:49:59.483Z,121.07
2018-03-16T05:52:03.014Z,102.00
2018-03-16T05:54:05.453Z,106.27
2018-03-16T05:56:07.931Z,123.30
2018-03-16T05:58:10.404Z,120.40
2018-03-16T06:00:12.918Z,109.43
2018-03-16T06:02:15.409Z,117.97
2018-03-16T06:04:17.897Z,108.22
2018-03-16T06:06:20.465Z,116.30
2018-03-16T06:08:22.908Z,108.37
2018-03-16T06:10:25.431Z,119.27
2018-03-16T06:12:27.941Z,108.00
2018-03-16T06:14:30.381Z,114.07
2018-03-16T06:16:32.834Z,120.40
2018-03-16T06:18:35.409Z,122.90
2018-03-16T06:20:37.896Z,110.60
2018-03-16T06:22:40.459Z,129.83
2018-03-16T06:24:42.987Z,115.43
2018-03-16T06:26:45.484Z,115.67
2018-03-16T06:28:48.001Z,113.53
2018-03-16T06:30:50.454Z,120.67
2018-03-16T06:32:52.916Z,126.13
2018-03-16T06:34:55.455Z,113.23
2018-03-16T06:36:57.904Z,124.30
2018-03-16T06:39:00.386Z,118.50
2018-03-16T06:41:02.886Z,125.93
2018-03-16T06:43:05.344Z,128.40
2018-03-16T06:45:07.810Z,104.67
2018-03-16T06:47:10.305Z,120.40
2018-03-16T06:49:12.819Z,126.57
2018-03-16T06:51:15.277Z,114.47
2018-03-16T06:53:17.794Z,119.03
2018-03-16T06:55:20.266Z,120.87
2018-03-16T06:57:22.779Z,122.00
2018-03-16T06:59:25.263Z,108.67
2018-03-16T07:01:27.765Z,132.07
2018-03-16T07:03:30.255Z,109.33
2018-03-16T07:05:32.935Z,109.40
2018-03-16T07:07:35.427Z,117.37
2018-03-16T07:09:38.007Z,117.93
2018-03-16T07:11:40.495Z,118.67
2018-03-16T07:13:42.924Z,116.60
2018-03-16T07:15:45.392Z,119.22
2018-03-16T07:17:47.912Z,125.17
2018-03-16T07:19:50.410Z,113.80
2018-03-16T07:21:52.898Z,120.77
2018-03-16T07:23:55.364Z,129.53
2018-03-16T07:25:57.805Z,116.37
2018-03-16T07:28:00.261Z,116.67
2018-03-16T07:30:02.773Z,114.63
2018-03-16T07:32:05.365Z,121.90
2018-03-16T07:34:07.840Z,96.63
2018-03-16T07:36:10.385Z,112.40
2018-03-16T07:38:12.944Z,110.25
2018-03-16T07:40:15.419Z,110.10
2018-03-16T07:42:17.957Z,129.63
2018-03-16T07:44:20.422Z,115.90
2018-03-16T07:46:22.885Z,116.20
2018-03-16T07:48:25.391Z,129.60
2018-03-16T07:50:27.972Z,115.28
2018-03-16T07:52:30.490Z,134.07
2018-03-16T07:57:33.741Z,129.07
2018-03-16T08:00:36.215Z,127.00
2018-03-16T08:03:38.738Z,101.17
2018-03-16T08:06:41.279Z,125.67
2018-03-16T08:09:43.727Z,121.40
2018-03-16T08:12:46.217Z,119.37
2018-03-16T08:15:48.677Z,122.63
2018-03-16T08:18:51.165Z,114.57
2018-03-16T08:21:53.665Z,97.80
2018-03-16T08:24:56.272Z,114.27
2018-03-16T08:27:58.754Z,99.20
2018-03-16T08:31:01.247Z,96.77
2018-03-16T08:34:03.702Z,107.37
2018-03-16T08:37:06.182Z,100.00
2018-03-16T08:40:08.671Z,91.70
2018-03-16T08:43:11.238Z,63.70
2018-03-16T08:46:13.697Z,79.40
2018-03-16T08:49:16.181Z,73.27
2018-03-16T08:52:18.686Z,77.20
2018-03-16T08:55:21.173Z,77.07
2018-03-16T08:58:23.697Z,82.00
2018-03-16T09:01:26.178Z,85.73
2018-03-16T09:04:28.666Z,74.67
2018-03-16T09:07:31.182Z,72.20
2018-03-16T09:10:33.658Z,52.87
2018-03-16T09:13:36.192Z,63.40
2018-03-16T09:16:38.639Z,71.90
2018-03-16T09:19:41.167Z,61.60
2018-03-16T09:22:43.632Z,63.60
2018-03-16T09:25:46.127Z,77.20
2018-03-16T09:28:48.637Z,69.23
2018-03-16T09:31:51.356Z,66.73
2018-03-16T09:34:53.852Z,67.17
2018-03-16T09:37:56.373Z,62.40
2018-03-16T09:40:58.913Z,60.33
2018-03-16T09:44:01.373Z,56.17
2018-03-16T09:47:03.974Z,57.57
2018-03-16T09:50:06.719Z,64.10
2018-03-16T09:53:09.153Z,54.70
2018-03-16T09:56:11.623Z,66.77
2018-03-16T09:59:14.102Z,49.07
2018-03-16T10:02:16.542Z,45.20
2018-03-16T10:05:19.202Z,58.87
2018-03-16T10:08:21.632Z,61.03
2018-03-16T10:11:24.167Z,55.40
2018-03-16T10:14:26.633Z,60.80
2018-03-16T10:17:29.118Z,64.47
2018-03-16T10:20:31.624Z,55.00
2018-03-16T10:23:34.083Z,53.40
2018-03-16T10:26:36.552Z,62.10
2018-03-16T10:29:39.090Z,54.80
2018-03-16T10:32:41.602Z,48.97
2018-03-16T10:35:44.076Z,51.97
2018-03-16T10:38:46.619Z,62.43
2018-03-16T10:41:49.147Z,65.77
2018-03-16T10:44:51.614Z,58.87
2018-03-16T10:47:54.089Z,57.27
2018-03-16T10:50:56.563Z,53.27
2018-03-16T10:53:59.029Z,60.87
2018-03-16T10:57:01.526Z,49.27
2018-03-16T11:00:03.958Z,59.10
2018-03-16T11:03:07.382Z,54.27
2018-03-16T11:06:09.848Z,55.53
2018-03-16T11:09:12.414Z,51.40
2018-03-16T11:12:14.867Z,56.07
2018-03-16T11:15:17.355Z,46.87
2018-03-16T11:18:19.860Z,49.27
2018-03-16T11:21:22.332Z,50.53
2018-03-16T11:24:24.812Z,48.53
2018-03-16T11:27:27.419Z,53.83
2018-03-16T11:30:29.857Z,51.67
2018-03-16T11:33:32.347Z,50.17
2018-03-16T11:36:34.815Z,50.40
2018-03-16T11:39:37.338Z,44.80
2018-03-16T11:42:39.759Z,54.53
2018-03-16T11:45:42.442Z,54.83
2018-03-16T11:48:44.914Z,52.10
2018-03-16T11:51:47.468Z,51.57
2018-03-16T11:54:50.131Z,48.77
2018-03-16T11:57:52.590Z,39.60
2018-03-16T12:00:55.085Z,54.40
2018-03-16T12:03:57.565Z,32.97
2018-03-16T12:07:00.068Z,46.37
2018-03-16T12:10:02.516Z,45.07
2018-03-16T12:13:04.964Z,50.63
2018-03-16T12:16:07.456Z,44.03
2018-03-16T12:19:09.951Z,36.60
2018-03-16T12:22:12.457Z,41.37
2018-03-16T12:25:14.945Z,39.60
2018-03-16T12:28:17.510Z,42.53
2018-03-16T12:31:19.963Z,40.30
2018-03-16T12:34:22.499Z,41.10
2018-03-16T12:37:24.959Z,40.33
2018-03-16T12:40:27.463Z,44.23
2018-03-16T12:43:29.935Z,43.40
2018-03-16T12:46:32.578Z,41.30
2018-03-16T12:49:35.073Z,38.13
2018-03-16T12:52:37.599Z,41.80
2018-03-16T12:55:40.050Z,35.20
2018-03-16T12:58:42.629Z,32.37
2018-03-16T13:01:45.075Z,36.40
2018-03-16T13:04:47.574Z,32.67
2018-03-16T13:07:50.130Z,40.80
2018-03-16T13:10:52.673Z,39.37
2018-03-16T13:13:55.218Z,41.20
2018-03-16T13:16:57.689Z,37.60
2018-03-16T13:20:00.191Z,39.70
2018-03-16T13:23:02.638Z,38.63
2018-03-16T13:26:05.109Z,39.83
2018-03-16T13:29:07.549Z,35.73
2018-03-16T13:32:10.031Z,41.97
2018-03-16T13:35:12.535Z,37.33
2018-03-16T13:38:15.002Z,39.27
2018-03-16T13:41:17.531Z,37.47
2018-03-16T13:44:20.069Z,37.60
2018-03-16T13:47:22.552Z,38.57
2018-03-16T13:50:25.176Z,39.23
2018-03-16T13:53:27.652Z,35.40
2018-03-16T13:56:30.161Z,36.47
2018-03-16T13:59:32.751Z,36.73
2018-03-16T14:02:35.320Z,38.77
2018-03-16T14:05:37.796Z,34.07
2018-03-16T14:08:40.341Z,34.80
2018-03-16T14:11:42.854Z,33.77
2018-03-16T14:14:45.468Z,33.30
2018-03-16T14:17:48.036Z,32.60
2018-03-16T14:20:50.546Z,32.07
2018-03-16T14:23:53.032Z,32.90
2018-03-16T14:26:55.527Z,26.97
2018-03-16T14:29:58.037Z,33.10
2018-03-16T14:33:00.536Z,38.33
2018-03-16T14:36:03.207Z,31.73
2018-03-16T14:39:09.242Z,34.07
2018-03-16T14:42:11.770Z,35.23
2018-03-16T14:45:14.211Z,39.07
2018-03-16T14:48:16.940Z,33.37
2018-03-16T14:51:19.436Z,33.10
2018-03-16T14:54:21.921Z,32.10
2018-03-16T14:57:24.403Z,33.73
2018-03-16T15:00:26.895Z,29.03
2018-03-16T15:03:29.402Z,29.37
2018-03-16T15:06:32.017Z,35.30
2018-03-16T15:09:34.697Z,33.33
2018-03-16T15:12:37.181Z,37.33
2018-03-16T15:15:39.701Z,34.33
2018-03-16T15:18:42.177Z,33.30
2018-03-16T15:21:44.817Z,35.63
2018-03-16T15:24:47.321Z,33.20
2018-03-16T15:27:49.826Z,34.17
2018-03-16T15:30:52.340Z,32.30
2018-03-16T15:33:54.839Z,30.13
2018-03-16T15:36:57.323Z,40.53
2018-03-16T15:39:59.787Z,38.07
2018-03-16T15:43:02.372Z,30.37
2018-03-16T15:46:04.910Z,38.73
2018-03-16T15:49:07.393Z,40.53
2018-03-16T15:52:09.929Z,26.50
2018-03-16T15:55:12.534Z,39.77
2018-03-16T15:58:15.051Z,31.50
2018-03-16T16:01:17.623Z,29.67
2018-03-16T16:04:20.294Z,39.53
2018-03-16T16:07:22.762Z,35.73
2018-03-16T16:10:25.258Z,32.93
2018-03-16T16:13:27.882Z,37.17
2018-03-16T16:16:30.497Z,38.03
2018-03-16T16:19:33.023Z,31.50
2018-03-16T16:22:35.529Z,35.50
2018-03-16T16:25:38.092Z,37.37
2018-03-16T16:28:40.698Z,34.97
2018-03-16T16:31:43.244Z,28.50
2018-03-16T16:34:45.894Z,38.87
2018-03-16T16:37:48.453Z,27.50
2018-03-16T16:40:50.994Z,31.93
2018-03-16T16:43:53.487Z,32.83
2018-03-16T16:46:56.174Z,32.97
2018-03-16T16:49:58.856Z,35.40
2018-03-16T16:53:01.404Z,27.07
2018-03-16T16:56:03.946Z,30.97
2018-03-16T16:59:06.549Z,28.70
2018-03-16T17:02:09.234Z,25.50
2018-03-16T17:05:11.782Z,25.23
2018-03-16T17:08:14.337Z,28.53
2018-03-16T17:11:16.897Z,25.40
2018-03-16T17:14:19.487Z,17.93
2018-03-16T17:17:21.996Z,25.73
2018-03-16T17:20:24.543Z,25.37
2018-03-16T17:23:27.038Z,25.80
2018-03-16T17:26:29.513Z,19.50
2018-03-16T17:29:32.054Z,25.80
2018-03-16T17:32:34.635Z,28.57
2018-03-16T17:35:37.135Z,19.07
2018-03-16T17:38:39.682Z,22.50
2018-03-16T17:41:42.227Z,18.23
2018-03-16T17:44:44.724Z,28.80
2018-03-16T17:47:47.225Z,15.47
2018-03-16T17:50:49.718Z,17.43
2018-03-16T17:53:52.269Z,16.70
2018-03-16T17:56:54.769Z,20.83
2018-03-16T17:59:57.472Z,20.73
2018-03-16T18:03:00.000Z,19.07
2018-03-16T18:06:02.497Z,19.67
2018-03-16T18:09:05.053Z,15.17
2018-03-16T18:12:07.548Z,22.97
2018-03-16T18:15:10.044Z,15.10
2018-03-16T18:18:12.568Z,19.80
2018-03-16T18:21:15.099Z,16.70
2018-03-16T18:24:17.624Z,16.63
2018-03-16T18:27:20.160Z,14.00
2018-03-16T18:30:22.689Z,18.30
2018-03-16T18:33:25.252Z,18.47
2018-03-16T18:36:27.759Z,14.20
2018-03-16T18:39:30.228Z,17.47
2018-03-16T18:42:32.834Z,16.37
2018-03-16T18:45:35.312Z,15.37
2018-03-16T18:48:37.861Z,21.43
2018-03-16T18:51:40.524Z,18.70
2018-03-16T18:54:43.094Z,23.27
2018-03-16T18:57:45.700Z,23.10
2018-03-16T19:00:48.209Z,22.03
2018-03-16T19:03:50.825Z,22.63
2018-03-16T19:06:53.275Z,24.00
2018-03-16T19:09:55.849Z,17.93
2018-03-16T19:12:58.756Z,18.00
2018-03-16T19:16:01.449Z,20.93
2018-03-16T19:19:03.995Z,18.50
2018-03-16T19:22:06.633Z,18.80
2018-03-16T19:25:09.180Z,19.80
2018-03-16T19:28:11.632Z,18.13
2018-03-16T19:31:14.133Z,18.77
2018-03-16T19:34:16.644Z,22.70
2018-03-16T19:37:19.175Z,15.20
2018-03-16T19:40:21.659Z,11.30
2018-03-16T19:43:24.291Z,12.97
2018-03-16T19:46:26.859Z,17.63
2018-03-16T19:49:29.523Z,19.17
2018-03-16T19:52:32.099Z,7.57
2018-03-16T19:55:34.652Z,9.03
2018-03-16T19:58:37.144Z,12.10
2018-03-16T20:01:39.680Z,10.17
2018-03-16T20:04:42.166Z,11.17
2018-03-16T20:07:44.695Z,15.53
2018-03-16T20:10:47.212Z,16.10
2018-03-16T20:13:49.789Z,13.50
2018-03-16T20:16:52.275Z,18.70
2018-03-16T20:19:54.891Z,13.83
2018-03-16T20:22:57.423Z,10.93
2018-03-16T20:25:59.929Z,14.90
2018-03-16T20:29:02.475Z,14.67
2018-03-16T20:32:04.928Z,16.50
2018-03-16T20:35:07.417Z,9.73
2018-03-16T20:38:09.918Z,7.37
2018-03-16T20:41:12.696Z,12.20
2018-03-16T20:44:15.201Z,12.00
2018-03-16T20:47:17.780Z,12.13
2018-03-16T20:50:20.295Z,9.93
2018-03-16T20:53:22.750Z,12.87
2018-03-16T20:56:25.395Z,12.10
2018-03-16T20:59:27.958Z,14.53
2018-03-16T21:02:30.518Z,10.97
2018-03-16T21:05:33.080Z,17.90
2018-03-16T21:08:35.645Z,13.40
2018-03-16T21:11:38.216Z,12.37
2018-03-16T21:14:40.742Z,13.13
2018-03-16T21:17:43.192Z,9.13
2018-03-16T21:20:46.616Z,17.23
2018-03-16T21:23:49.068Z,15.13
2018-03-16T21:26:51.581Z,12.20
2018-03-16T21:29:54.205Z,14.03
2018-03-16T21:32:56.769Z,12.50
2018-03-16T21:35:59.257Z,21.70
2018-03-16T21:39:01.763Z,16.90
2018-03-16T21:42:04.330Z,16.90
2018-03-16T21:45:06.800Z,16.20
2018-03-16T21:48:09.477Z,16.93
2018-03-16T21:51:12.221Z,15.63
2018-03-16T21:54:14.842Z,12.50
2018-03-16T21:57:17.343Z,15.30
2018-03-16T22:00:19.852Z,21.40
2018-03-16T22:03:22.363Z,13.53
2018-03-16T22:06:24.876Z,20.40
2018-03-16T22:09:27.385Z,15.83
2018-03-16T22:12:30.371Z,22.00
2018-03-16T22:15:32.955Z,17.62
2018-03-16T22:18:35.509Z,19.73
2018-03-16T22:21:38.074Z,8.33
2018-03-16T22:24:40.638Z,14.23
2018-03-16T22:27:43.216Z,10.60
2018-03-16T22:30:45.762Z,12.70
2018-03-16T22:33:48.280Z,16.30
2018-03-16T22:36:50.887Z,15.23
2018-03-16T22:39:53.363Z,13.80
2018-03-16T22:42:55.833Z,12.23
2018-03-16T22:45:58.318Z,11.07
2018-03-16T22:49:00.835Z,13.87
2018-03-16T22:52:03.408Z,13.73
2018-03-16T22:55:06.050Z,11.90
2018-03-16T22:58:08.621Z,10.10
2018-03-16T23:01:11.116Z,14.93
2018-03-16T23:04:13.566Z,8.70
2018-03-16T23:07:16.127Z,17.80
2018-03-16T23:10:18.549Z,8.00
2018-03-16T23:13:21.128Z,9.30
2018-03-16T23:16:23.688Z,10.33
2018-03-16T23:19:26.258Z,15.27
2018-03-16T23:22:28.818Z,9.83
2018-03-16T23:25:31.292Z,13.73
2018-03-16T23:28:33.846Z,10.50
2018-03-16T23:31:36.305Z,5.70
2018-03-16T23:34:38.871Z,6.87
2018-03-16T23:37:41.426Z,9.13
2018-03-16T23:40:43.952Z,7.70
2018-03-16T23:43:46.438Z,9.63
2018-03-16T23:46:49.011Z,11.57
2018-03-16T23:49:51.581Z,12.63
2018-03-16T23:52:54.088Z,9.33
2018-03-16T23:55:56.603Z,10.77
2018-03-16T23:58:59.089Z,8.13
